Flight Track Log - Related Links

Times and Time Zones

All times are in EDT time to prevent confusion due to time zone crossing. See the SWA2702 flight status page for this flight to view local times or setup timezone preferences in your user account.

Time Position Orientation Groundspeed Altitude Reporting Facility
EDT Latitude Longitude Course Direction KTS km/h meters Rate Location/Type
Fri 11:12:31 33.6500 -117.8833 194° South 155 286 427  Level Southern California TRACON
Fri 11:13:59 33.5925 -117.9003 194° South 160 296 945 585 Climbing Los Angeles Center
Fri 11:15:01 33.5197 -117.9469 208° Southwest 250 463 1,890 1,047 Climbing Los Angeles Center
Fri 11:16:03 33.4511 -118.0000 213° Southwest 283 525 3,109 959 Climbing Los Angeles Center
Fri 11:17:05 33.3722 -118.0575 211° Southwest 315 583 3,871 811 Climbing Los Angeles Center
Fri 11:18:07 33.3400 -118.1653 250° West 349 647 4,785 885 Climbing Los Angeles Center
Fri 11:19:09 33.3903 -118.2669 301° West 360 666 5,700 885 Climbing Los Angeles Center
Fri 11:20:11 33.4578 -118.3592 311° West 365 676 6,614 811 Climbing Los Angeles Center
Fri 11:21:13 33.5297 -118.4553 312° West 376 697 7,376 678 Climbing Los Angeles Center
Fri 11:22:15 33.6069 -118.5569 312° West 402 745 8,016 664 Climbing Los Angeles Center
Fri 11:23:17 33.7022 -118.6825 312° West 417 772 8,748 693 Climbing Los Angeles Center
Fri 11:24:19 33.7811 -118.7883 312° West 422 782 9,449 483 Climbing Los Angeles Center
Fri 11:25:22 33.8603 -118.8933 312° West 423 784 9,754 146 Climbing Los Angeles Center
Fri 11:26:24 33.9389 -118.9994 312° West 424 785 9,754  Level Los Angeles Center
Fri 11:27:26 34.0164 -119.1047 312° West 422 782 9,754  Level Los Angeles Center
Fri 11:28:28 34.0942 -119.2094 312° West 419 776 9,754  Level Los Angeles Center
Fri 11:29:30 34.1864 -119.3350 312° West 417 772 9,754  Level Los Angeles Center
Fri 11:30:32 34.2636 -119.4392 312° West 416 771 9,754  Level Los Angeles Center
Fri 11:31:34 34.3400 -119.5431 312° West 414 766 9,754  Level Los Angeles Center
Fri 11:32:36 34.4161 -119.6489 311° West 416 771 9,754  Level Los Angeles Center
Fri 11:33:39 34.4944 -119.7539 312° West 418 774 9,754  Level Los Angeles Center
Fri 11:34:41 34.5778 -119.8489 317° Northwest 413 764 9,754  Level Los Angeles Center
Fri 11:35:43 34.6717 -119.9500 318° Northwest 415 769 9,754  Level Los Angeles Center
Fri 11:36:45 34.7575 -120.0428 318° Northwest 413 764 9,754  Level Los Angeles Center
Fri 11:37:47 34.8547 -120.1494 318° Northwest 413 764 9,754  Level Los Angeles Center
Fri 11:38:49 34.9389 -120.2408 318° Northwest 411 761 9,754  Level Los Angeles Center
Fri 11:39:51 35.0231 -120.3336 318° Northwest 410 760 9,754  Level Los Angeles Center
Fri 11:40:53 35.1086 -120.4278 318° Northwest 415 769 9,754  Level Los Angeles Center
Fri 11:41:56 35.2103 -120.5414 318° Northwest 416 771 9,754  Level Los Angeles Center
Fri 11:42:58 35.2950 -120.6369 317° Northwest 416 771 9,754  Level Los Angeles Center
Fri 11:44:00 35.3794 -120.7314 318° Northwest 415 769 9,754  Level Los Angeles Center
Fri 11:44:46 35.4414 -120.8019 317° Northwest 408 756 9,754  Level Oakland Center
Fri 11:45:47 35.5278 -120.8986 318° Northwest 413 764 9,754  Level Oakland Center
Fri 11:46:49 35.6122 -120.9931 318° Northwest 409 758 9,754  Level Oakland Center
Fri 11:47:50 35.6961 -121.0881 317° Northwest 407 753 9,754  Level Oakland Center
Fri 11:48:51 35.7794 -121.1842 317° Northwest 408 756 9,754 -59 Level Oakland Center
Fri 11:49:53 35.8800 -121.2978 318° Northwest 407 753 9,632 -223 Descending Oakland Center
Fri 11:50:54 35.9614 -121.3917 317° Northwest 400 740 9,296 -312 Descending Oakland Center
Fri 11:51:56 36.0428 -121.4825 318° Northwest 393 727 8,992 -297 Descending Oakland Center
Fri 11:52:57 36.1197 -121.5742 316° Northwest 383 710 8,687 -297 Descending Oakland Center
Fri 11:53:59 36.1997 -121.6619 318° Northwest 383 710 8,382 -297 Descending Oakland Center
Fri 11:55:00 36.2858 -121.7358 325° Northwest 375 695 8,077 -330 Descending Oakland Center
Fri 11:56:01 36.3800 -121.8172 325° Northwest 370 686 7,711 -461 Descending Oakland Center
Fri 11:57:03 36.4631 -121.8844 327° Northwest 356 660 7,132 -580 Descending Oakland Center
Fri 11:58:04 36.5583 -121.9108 347° North 351 650 6,523 -506 Descending Oakland Center
Fri 11:59:06 36.6486 -121.9369 347° North 334 618 6,096 -320 Descending Oakland Center
Fri 11:59:24 36.6833 -121.9500 343° North 324 600 6,096 -187 Level Northern Cal TRACON
Fri 12:00:24 36.7667 -121.9667 351° North 328 607 5,852 -335 Descending Northern Cal TRACON
Fri 12:01:24 36.8333 -122.0500 315° West 320 592 5,425 -465 Descending Northern Cal TRACON
Fri 12:02:18 36.8500 -122.1333 284° West 295 546 4,968 -593 Descending Northern Cal TRACON
Fri 12:03:12 36.8819 -122.2161 296° West 293 542 4,359 -363 Descending Oakland Center
Fri 12:04:14 36.9133 -122.3064 294° West 286 529 4,267 -45 Descending Oakland Center
Fri 12:05:15 36.9533 -122.3836 303° West 281 520 4,267  Level Oakland Center
Fri 12:06:17 37.0256 -122.3578 16° North 270 501 4,267 -149 Level Oakland Center
Fri 12:07:18 37.0978 -122.3264 19° North 273 505 3,962 -312 Descending Oakland Center
Fri 12:08:20 37.1689 -122.2939 20° North 272 504 3,627 -327 Descending Oakland Center
Fri 12:09:21 37.2350 -122.2678 17° North 257 476 3,292 -327 Descending Oakland Center
Fri 12:10:23 37.2942 -122.2339 24° Northeast 241 446 2,957 -446 Descending Oakland Center
Fri 12:11:24 37.3536 -122.1742 39° Northeast 228 422 2,377 -520 Descending Oakland Center
Fri 12:12:26 37.4053 -122.1233 38° Northeast 232 430 1,890 -436 Descending Oakland Center
Fri 12:13:13 37.4500 -122.1000 22° Northeast 240 444 1,585 -342 Descending Northern Cal TRACON
Fri 12:14:13 37.5000 -122.1167 345° North 186 344 1,280 -285 Descending Northern Cal TRACON
Fri 12:16:32 37.5589 -122.2367 302° West 184 341 640 -265 Descending Oakland Center
Fri 12:17:33 37.5797 -122.2867 298° West 174 322 396 -238 Descending Oakland Center
Fri 12:18:35 37.5981 -122.3306 298° West 158 293 152 -236 Descending Oakland Center
Fri 12:21:00 37.6167 -122.3667 322° Northwest  Level FlightAware Approximate

Login

Don't have an account? Register now (free) for customized features, flight alerts, and more!